Time;durP1;ratioP1;P1;durP2;ratioP2;P2;SDS_P1;SDS_P2;PMS_P1;PMS_P2;Temp;Humidity;BMP_temperature;BMP_pressure;BME280_temperature;BME280_humidity;BME280_pressure;Samples;Min_cycle;Max_cycle;Signal;HPM_P1;HPM_P2
2024/03/28 10:28:22;;;;;;;31.73;29.48;;;8.60;99.90;;;;;;4958438;28;20030;-69
2024/03/28 10:30:50;;;;;;;34.30;32.00;;;8.50;99.90;;;;;;4977795;28;20046;-68
2024/03/28 10:33:16;;;;;;;31.17;29.08;;;8.40;99.90;;;;;;4962186;28;20106;-69
2024/03/28 10:35:42;;;;;;;30.77;28.60;;;8.30;99.90;;;;;;4967146;28;20047;-70
2024/03/28 10:38:13;;;;;;;29.90;27.67;;;8.40;99.90;;;;;;4947858;28;20054;-70
2024/03/28 10:40:41;;;;;;;28.85;26.75;;;8.40;99.90;;;;;;4964095;28;20030;-68
2024/03/28 10:43:13;;;;;;;29.58;27.45;;;8.40;99.90;;;;;;4949146;28;20673;-68
2024/03/28 10:45:41;;;;;;;27.55;25.58;;;8.40;99.90;;;;;;4965529;28;20539;-70
2024/03/28 10:48:15;;;;;;;27.55;25.65;;;8.30;99.90;;;;;;4960696;28;20066;-69
2024/03/28 10:51:04;;;;;;;28.13;26.08;;;8.30;99.90;;;;;;4955959;28;20038;-68
2024/03/28 10:53:30;;;;;;;28.55;26.52;;;8.30;99.90;;;;;;4903727;28;20054;-69
2024/03/28 10:56:07;;;;;;;26.58;24.83;;;8.40;99.90;;;;;;4945932;28;20718;-69
2024/03/28 10:58:35;;;;;;;27.40;25.50;;;8.50;99.90;;;;;;4931387;28;20043;-67
2024/03/28 11:01:02;;;;;;;26.13;24.52;;;8.30;99.90;;;;;;4936884;28;20639;-67
2024/03/28 11:03:30;;;;;;;25.05;23.50;;;8.30;99.90;;;;;;4967133;28;20755;-68
2024/03/28 11:06:01;;;;;;;27.40;25.85;;;8.20;99.90;;;;;;4951095;28;20066;-69
2024/03/28 11:08:31;;;;;;;26.90;25.10;;;8.20;99.90;;;;;;4949476;28;20648;-67
2024/03/28 11:11:01;;;;;;;26.05;24.40;;;8.10;99.90;;;;;;4943683;28;20046;-68
2024/03/28 11:13:29;;;;;;;24.27;22.77;;;8.10;99.90;;;;;;4947670;28;20058;-68
2024/03/28 11:16:05;;;;;;;25.52;24.13;;;8.10;99.90;;;;;;4950980;28;20673;-68
2024/03/28 11:18:32;;;;;;;23.55;22.27;;;8.10;99.90;;;;;;4937497;28;20046;-67
2024/03/28 11:20:59;;;;;;;23.77;22.58;;;8.10;99.90;;;;;;4937120;28;20508;-69
2024/03/28 11:23:27;;;;;;;21.55;20.35;;;8.10;99.90;;;;;;4951088;28;20050;-69
2024/03/28 11:26:07;;;;;;;21.35;20.20;;;8.10;99.90;;;;;;4961178;28;20115;-70
2024/03/28 11:28:39;;;;;;;21.10;20.00;;;8.10;99.90;;;;;;4957845;28;20065;-71
2024/03/28 11:31:06;;;;;;;20.45;19.40;;;8.00;99.90;;;;;;4960691;28;20074;-69
2024/03/28 11:33:38;;;;;;;23.50;22.40;;;8.00;99.90;;;;;;4933733;28;20051;-69
2024/03/28 11:36:07;;;;;;;24.25;23.15;;;8.00;99.90;;;;;;4956111;28;20660;-70
2024/03/28 11:38:37;;;;;;;25.10;24.00;;;7.90;99.90;;;;;;4963709;28;20047;-69
2024/03/28 11:41:04;;;;;;;23.52;22.20;;;7.90;99.90;;;;;;4945710;28;20043;-70
2024/03/28 11:43:31;;;;;;;19.05;18.15;;;7.90;99.90;;;;;;4951181;28;20093;-69
2024/03/28 11:46:03;;;;;;;18.48;17.58;;;7.90;99.90;;;;;;4948182;28;20035;-69
2024/03/28 11:48:35;;;;;;;23.35;22.25;;;7.80;99.90;;;;;;4962104;28;20552;-70
2024/03/28 11:51:03;;;;;;;22.63;21.58;;;7.80;99.90;;;;;;4952650;28;20676;-69
2024/03/28 11:53:30;;;;;;;22.00;20.90;;;7.80;99.90;;;;;;4944797;28;20046;-69
2024/03/28 11:55:56;;;;;;;21.58;20.67;;;7.80;99.90;;;;;;4948215;28;20043;-70
2024/03/28 11:58:26;;;;;;;17.80;17.00;;;7.80;99.90;;;;;;4945235;28;20444;-68
2024/03/28 12:00:57;;;;;;;17.65;16.75;;;7.70;99.90;;;;;;4962006;28;20562;-71
2024/03/28 12:03:24;;;;;;;17.45;16.65;;;7.60;99.90;;;;;;4947804;28;20430;-71
2024/03/28 12:05:51;;;;;;;14.57;13.98;;;7.60;99.90;;;;;;4935885;28;20046;-71
2024/03/28 12:08:30;;;;;;;13.35;12.75;;;7.50;99.90;;;;;;4942262;28;20055;-71
2024/03/28 12:11:04;;;;;;;15.00;14.20;;;7.50;99.90;;;;;;4935481;28;20093;-70
2024/03/28 12:13:34;;;;;;;12.90;12.25;;;7.50;99.90;;;;;;4921944;28;20047;-71
2024/03/28 12:16:03;;;;;;;15.68;14.77;;;7.40;99.90;;;;;;4946316;28;20101;-70
2024/03/28 12:18:42;;;;;;;15.57;14.77;;;7.40;99.90;;;;;;4965784;28;20046;-71
2024/03/28 12:21:11;;;;;;;15.90;15.20;;;7.40;99.90;;;;;;4951294;28;20447;-69
2024/03/28 12:23:39;;;;;;;18.27;17.27;;;7.40;99.90;;;;;;4940412;28;20137;-71
2024/03/28 12:26:05;;;;;;;16.65;15.85;;;7.40;99.90;;;;;;4934913;28;20058;-71
2024/03/28 12:28:32;;;;;;;17.63;16.70;;;7.50;99.90;;;;;;4944794;28;20890;-69
2024/03/28 12:31:00;;;;;;;18.80;17.98;;;7.50;99.90;;;;;;4960121;28;20047;-69
2024/03/28 12:33:26;;;;;;;20.15;19.25;;;7.60;99.90;;;;;;4945463;28;20851;-69
2024/03/28 12:35:56;;;;;;;23.75;22.67;;;7.70;99.90;;;;;;4952546;28;20283;-73
2024/03/28 12:38:23;;;;;;;22.50;21.45;;;7.70;99.90;;;;;;4946675;28;20065;-70
2024/03/28 12:40:51;;;;;;;23.60;22.50;;;7.70;99.90;;;;;;4946844;28;20030;-69
2024/03/28 12:43:23;;;;;;;24.48;23.38;;;7.70;99.90;;;;;;4961177;28;20054;-68
2024/03/28 12:46:04;;;;;;;25.90;24.80;;;7.70;99.90;;;;;;4960774;28;20054;-71
2024/03/28 12:48:30;;;;;;;19.70;18.52;;;7.70;99.90;;;;;;4945176;28;20042;-70
2024/03/28 12:50:56;;;;;;;18.63;17.83;;;7.70;99.90;;;;;;4932221;28;20057;-70
2024/03/28 12:53:22;;;;;;;19.58;18.67;;;7.80;99.90;;;;;;4978852;28;20065;-71
2024/03/28 12:55:49;;;;;;;22.30;21.30;;;7.80;99.90;;;;;;4960669;28;20061;-72
2024/03/28 12:58:15;;;;;;;23.83;22.63;;;7.90;99.90;;;;;;4959025;28;20040;-69
2024/03/28 13:00:41;;;;;;;20.45;19.35;;;8.10;99.90;;;;;;4975911;28;20077;-71
2024/03/28 13:03:08;;;;;;;23.33;22.13;;;8.70;99.90;;;;;;4940412;28;20261;-70
2024/03/28 13:05:34;;;;;;;23.88;22.67;;;9.20;99.90;;;;;;4969841;28;20527;-71
2024/03/28 13:08:01;;;;;;;24.83;23.52;;;9.40;99.90;;;;;;4960496;28;20080;-71
2024/03/28 13:10:30;;;;;;;26.13;24.80;;;9.70;99.90;;;;;;4976341;28;20092;-71
2024/03/28 13:12:57;;;;;;;26.73;25.27;;;9.60;99.90;;;;;;4954848;28;20046;-71
2024/03/28 13:15:23;;;;;;;25.50;24.20;;;9.70;99.90;;;;;;4965601;28;20145;-69
2024/03/28 13:17:51;;;;;;;27.33;26.02;;;9.80;99.90;;;;;;4961728;28;20105;-70
2024/03/28 13:20:17;;;;;;;24.00;22.80;;;9.90;99.90;;;;;;4971785;28;20546;-70
2024/03/28 13:22:42;;;;;;;28.88;27.48;;;9.60;99.90;;;;;;4958056;28;20039;-70
2024/03/28 13:25:09;;;;;;;27.83;26.45;;;9.30;99.90;;;;;;4963004;28;20384;-69
2024/03/28 13:27:35;;;;;;;28.15;26.85;;;9.20;99.90;;;;;;4943613;28;20305;-70
2024/03/28 13:30:03;;;;;;;28.45;27.15;;;9.10;99.90;;;;;;4976074;28;20049;-70
2024/03/28 13:32:29;;;;;;;27.40;26.00;;;9.10;99.90;;;;;;4956982;28;20130;-71
2024/03/28 13:34:55;;;;;;;29.35;27.90;;;9.20;99.90;;;;;;4952400;28;20612;-71
2024/03/28 13:37:22;;;;;;;29.05;27.55;;;9.30;99.90;;;;;;4952852;28;20097;-70
2024/03/28 13:39:48;;;;;;;28.02;26.73;;;9.30;99.90;;;;;;4939946;28;20399;-70
2024/03/28 13:42:14;;;;;;;23.92;22.73;;;9.50;99.90;;;;;;4938247;28;20062;-70
2024/03/28 13:44:40;;;;;;;29.52;28.13;;;9.50;99.90;;;;;;4948029;28;20058;-70
2024/03/28 13:47:10;;;;;;;33.90;32.40;;;9.40;99.90;;;;;;4950442;28;20046;-68
2024/03/28 13:49:38;;;;;;;34.17;32.30;;;9.30;99.90;;;;;;4963529;28;20355;-67
2024/03/28 13:52:04;;;;;;;35.05;33.05;;;9.20;99.90;;;;;;4996994;28;20042;-71
2024/03/28 13:54:31;;;;;;;30.17;28.38;;;9.20;99.90;;;;;;4959491;28;20062;-70
2024/03/28 13:56:59;;;;;;;28.50;26.90;;;9.10;99.90;;;;;;4940448;28;20046;-68
2024/03/28 13:59:25;;;;;;;30.65;28.85;;;9.20;99.90;;;;;;4949330;28;20525;-68
2024/03/28 14:01:51;;;;;;;30.73;28.83;;;9.30;99.90;;;;;;4959555;28;20664;-68
2024/03/28 14:04:18;;;;;;;34.63;32.53;;;9.40;99.90;;;;;;4951227;28;20059;-68
2024/03/28 14:06:45;;;;;;;31.45;29.55;;;9.60;99.90;;;;;;4933393;28;20058;-69
2024/03/28 14:09:12;;;;;;;34.45;32.25;;;9.90;99.90;;;;;;4931395;28;20660;-68
2024/03/28 14:11:40;;;;;;;33.30;31.30;;;10.20;99.90;;;;;;4946764;28;21383;-69
2024/03/28 14:14:08;;;;;;;33.85;31.88;;;10.30;99.90;;;;;;4969834;28;20264;-69
2024/03/28 14:16:34;;;;;;;32.97;31.05;;;10.60;99.90;;;;;;4944182;28;20227;-69
2024/03/28 14:19:00;;;;;;;30.95;29.15;;;10.90;99.90;;;;;;4969877;28;20097;-68
2024/03/28 14:21:27;;;;;;;32.22;30.42;;;10.80;99.90;;;;;;4969235;28;20038;-69
2024/03/28 14:23:54;;;;;;;32.75;30.92;;;10.80;99.90;;;;;;4954377;28;20106;-70
2024/03/28 14:26:20;;;;;;;30.33;28.63;;;11.10;99.90;;;;;;4945876;28;20548;-70
2024/03/28 14:28:46;;;;;;;31.50;29.52;;;11.20;99.90;;;;;;4949803;28;20634;-69
2024/03/28 14:31:13;;;;;;;26.05;24.35;;;11.00;99.90;;;;;;4954529;28;20046;-70
2024/03/28 14:33:40;;;;;;;31.58;29.67;;;11.00;99.90;;;;;;4952187;28;21240;-70
2024/03/28 14:36:08;;;;;;;32.08;29.98;;;11.00;99.90;;;;;;4962888;28;20050;-70
2024/03/28 14:38:35;;;;;;;30.85;28.85;;;11.00;99.90;;;;;;4944460;28;20046;-70
2024/03/28 14:41:06;;;;;;;31.17;29.17;;;10.70;99.90;;;;;;4937160;28;20088;-70
2024/03/28 14:43:33;;;;;;;31.13;29.02;;;10.50;99.90;;;;;;4949309;28;20136;-69
2024/03/28 14:46:05;;;;;;;25.73;23.80;;;10.30;99.90;;;;;;4946947;28;20050;-71
2024/03/28 14:48:31;;;;;;;26.67;24.98;;;10.20;99.90;;;;;;4941754;28;20058;-69
2024/03/28 14:50:59;;;;;;;28.77;26.65;;;10.00;99.90;;;;;;4951833;28;20042;-70
2024/03/28 14:53:26;;;;;;;28.67;26.95;;;9.90;99.90;;;;;;4969062;28;20046;-70
2024/03/28 14:55:56;;;;;;;19.27;17.85;;;9.70;99.90;;;;;;4925101;28;20055;-69
2024/03/28 14:58:23;;;;;;;17.38;16.27;;;9.30;99.90;;;;;;4962390;28;20034;-70
2024/03/28 15:00:50;;;;;;;16.60;15.60;;;8.40;99.90;;;;;;4965484;28;20112;-70
2024/03/28 15:03:16;;;;;;;16.63;15.63;;;7.70;99.90;;;;;;4949989;28;20050;-71
2024/03/28 15:05:52;;;;;;;20.88;19.65;;;7.40;99.90;;;;;;4932176;28;20043;-69
2024/03/28 15:08:19;;;;;;;25.73;23.92;;;7.40;99.90;;;;;;4948379;28;20042;-70
2024/03/28 15:10:45;;;;;;;22.08;20.90;;;7.40;99.90;;;;;;4946112;28;20042;-71
2024/03/28 15:13:13;;;;;;;23.23;21.52;;;7.50;99.90;;;;;;4967007;28;20046;-71
2024/03/28 15:15:42;;;;;;;22.95;21.70;;;7.50;99.90;;;;;;4942713;28;20073;-70
2024/03/28 15:18:11;;;;;;;21.83;20.83;;;7.60;99.90;;;;;;4961370;28;20050;-70
2024/03/28 15:20:40;;;;;;;27.42;26.17;;;7.70;99.90;;;;;;4947259;28;20662;-71
2024/03/28 15:23:06;;;;;;;28.48;26.98;;;7.80;99.90;;;;;;4950357;28;20042;-71
2024/03/28 15:25:34;;;;;;;28.80;27.02;;;7.80;99.90;;;;;;4958973;28;20057;-69
2024/03/28 15:28:00;;;;;;;28.90;27.40;;;7.90;99.90;;;;;;4947672;28;20122;-71
2024/03/28 15:30:28;;;;;;;28.02;26.35;;;7.90;99.90;;;;;;4959072;28;20030;-69
2024/03/28 15:32:56;;;;;;;28.50;26.83;;;8.10;99.90;;;;;;4973894;28;20046;-69
2024/03/28 15:35:24;;;;;;;27.10;25.50;;;8.30;99.90;;;;;;4976239;28;20069;-70
2024/03/28 15:37:53;;;;;;;28.00;26.40;;;8.60;99.90;;;;;;4975225;28;20078;-69
2024/03/28 15:40:23;;;;;;;28.50;26.70;;;8.70;99.90;;;;;;4976579;28;20042;-69
2024/03/28 15:42:50;;;;;;;28.17;26.73;;;8.80;99.90;;;;;;4986868;28;20717;-69
2024/03/28 15:45:16;;;;;;;29.65;28.05;;;9.00;99.90;;;;;;4989750;28;21017;-68
2024/03/28 15:47:45;;;;;;;29.83;28.23;;;9.00;99.90;;;;;;4974368;28;20058;-69
2024/03/28 15:50:16;;;;;;;29.70;28.10;;;9.00;99.90;;;;;;5018714;28;20094;-69
2024/03/28 15:52:45;;;;;;;28.90;27.30;;;9.10;99.90;;;;;;4976083;28;20038;-68
2024/03/28 15:55:12;;;;;;;28.95;27.25;;;9.10;99.90;;;;;;4949243;28;20039;-71
2024/03/28 15:57:38;;;;;;;30.58;28.77;;;9.20;99.90;;;;;;4946980;28;20049;-70
2024/03/28 16:00:05;;;;;;;30.77;28.98;;;9.30;99.90;;;;;;4968344;28;20085;-71
2024/03/28 16:02:31;;;;;;;31.30;29.42;;;9.40;99.90;;;;;;4951442;28;20129;-69
2024/03/28 16:04:58;;;;;;;32.03;30.02;;;9.40;99.90;;;;;;4968406;28;20057;-70
2024/03/28 16:07:24;;;;;;;32.15;30.23;;;9.50;99.90;;;;;;4967208;28;20678;-68
2024/03/28 16:09:55;;;;;;;30.05;27.67;;;9.50;99.90;;;;;;4970018;28;20112;-71
2024/03/28 16:12:24;;;;;;;29.80;28.10;;;9.50;99.90;;;;;;4950495;28;20042;-70
2024/03/28 16:14:51;;;;;;;32.10;30.10;;;9.40;99.90;;;;;;4953064;28;21577;-70
2024/03/28 16:17:18;;;;;;;31.95;29.92;;;9.50;99.90;;;;;;4967238;28;21133;-69
2024/03/28 16:19:46;;;;;;;29.92;28.15;;;9.50;99.90;;;;;;4961369;28;20054;-69
2024/03/28 16:22:14;;;;;;;31.10;29.30;;;9.60;99.90;;;;;;4937974;28;20264;-69
2024/03/28 16:24:43;;;;;;;32.40;30.40;;;9.50;99.90;;;;;;4950786;28;20049;-69
2024/03/28 16:27:09;;;;;;;32.35;30.25;;;9.60;99.90;;;;;;4946829;28;20500;-70
2024/03/28 16:29:36;;;;;;;27.45;25.65;;;9.60;99.90;;;;;;4949527;28;20067;-68
2024/03/28 16:32:03;;;;;;;30.52;28.63;;;9.50;99.90;;;;;;4962611;28;20046;-70
2024/03/28 16:34:29;;;;;;;29.13;27.33;;;9.50;99.90;;;;;;4956804;28;20088;-69
2024/03/28 16:36:55;;;;;;;26.45;24.65;;;9.50;99.90;;;;;;4958273;28;20389;-70
2024/03/28 16:39:23;;;;;;;26.95;25.25;;;9.40;99.90;;;;;;4976501;28;20043;-71
2024/03/28 16:41:50;;;;;;;26.23;24.63;;;9.30;99.90;;;;;;4953269;28;20693;-69
2024/03/28 16:44:16;;;;;;;28.27;26.35;;;9.30;99.90;;;;;;4955812;28;20070;-69
2024/03/28 16:46:42;;;;;;;26.60;24.90;;;9.20;99.90;;;;;;4947896;28;20597;-69
2024/03/28 16:49:08;;;;;;;27.88;26.13;;;9.20;99.90;;;;;;4953485;28;20050;-69
2024/03/28 16:51:34;;;;;;;26.40;24.88;;;9.20;99.90;;;;;;4951195;28;20050;-67
2024/03/28 16:54:04;;;;;;;25.42;23.92;;;9.10;99.90;;;;;;4954085;28;20056;-68
2024/03/28 16:56:31;;;;;;;30.17;28.38;;;9.10;99.90;;;;;;4969542;28;20049;-69
2024/03/28 16:58:57;;;;;;;28.48;26.48;;;9.20;99.90;;;;;;4967214;28;20608;-69
2024/03/28 17:01:23;;;;;;;28.95;27.08;;;9.10;99.90;;;;;;4970313;28;20999;-70
2024/03/28 17:03:52;;;;;;;30.45;28.45;;;9.20;99.90;;;;;;4950680;28;20046;-70
2024/03/28 17:06:19;;;;;;;22.15;20.45;;;9.10;99.90;;;;;;4948253;28;20045;-69
2024/03/28 17:08:46;;;;;;;23.40;21.73;;;9.10;99.90;;;;;;4971205;28;20051;-70
2024/03/28 17:11:12;;;;;;;23.10;21.40;;;9.10;99.90;;;;;;4952654;28;20035;-69
2024/03/28 17:13:39;;;;;;;23.65;21.95;;;9.10;99.90;;;;;;4951861;28;20404;-69
2024/03/28 17:16:05;;;;;;;33.25;30.73;;;9.10;99.90;;;;;;4957969;28;20145;-70
2024/03/28 17:18:32;;;;;;;30.17;27.35;;;9.10;99.90;;;;;;4962412;28;20050;-70
2024/03/28 17:21:03;;;;;;;28.85;26.38;;;9.10;99.90;;;;;;4953884;28;20097;-70
2024/03/28 17:23:30;;;;;;;25.70;23.75;;;9.00;99.90;;;;;;4973804;28;20515;-68
2024/03/28 17:25:56;;;;;;;32.97;27.95;;;8.90;99.90;;;;;;4965300;28;20051;-70
2024/03/28 17:28:22;;;;;;;34.70;28.15;;;8.90;99.90;;;;;;4955140;28;20668;-69
2024/03/28 17:30:48;;;;;;;33.28;27.50;;;8.90;99.90;;;;;;4940369;28;20064;-69
2024/03/28 17:33:14;;;;;;;59.67;36.97;;;8.90;99.90;;;;;;4943086;28;20058;-70
2024/03/28 17:35:41;;;;;;;30.35;27.30;;;8.90;99.90;;;;;;4946891;28;20053;-68
2024/03/28 17:38:09;;;;;;;27.67;24.15;;;8.90;99.90;;;;;;4955734;28;20579;-69
2024/03/28 17:40:36;;;;;;;25.75;23.30;;;8.90;99.90;;;;;;4940328;28;20602;-69
2024/03/28 17:43:02;;;;;;;25.63;23.20;;;8.90;99.90;;;;;;4952351;28;20539;-69
2024/03/28 17:45:28;;;;;;;22.30;20.60;;;8.80;99.90;;;;;;4971121;28;20038;-68
2024/03/28 17:47:55;;;;;;;31.75;29.40;;;8.70;99.90;;;;;;4961285;28;20054;-69
2024/03/28 17:50:21;;;;;;;23.83;21.90;;;8.70;99.90;;;;;;4950534;28;20101;-70
2024/03/28 17:52:47;;;;;;;21.65;20.05;;;8.50;99.90;;;;;;4963179;28;20049;-70
2024/03/28 17:55:13;;;;;;;24.55;22.05;;;8.40;99.90;;;;;;4945018;28;20527;-68
2024/03/28 17:57:40;;;;;;;26.90;24.50;;;8.40;99.90;;;;;;4991350;28;20050;-67
2024/03/28 18:00:06;;;;;;;22.80;20.90;;;8.30;99.90;;;;;;4969834;28;20428;-70
2024/03/28 18:02:32;;;;;;;21.70;20.00;;;8.30;99.90;;;;;;4955207;28;20053;-69
2024/03/28 18:04:59;;;;;;;22.40;20.60;;;8.20;99.90;;;;;;4970771;28;20042;-69
2024/03/28 18:07:26;;;;;;;21.10;19.50;;;8.10;99.90;;;;;;4953461;28;20169;-70
2024/03/28 18:09:53;;;;;;;21.15;19.65;;;8.10;99.90;;;;;;4959255;28;20036;-69
2024/03/28 18:12:20;;;;;;;21.33;19.80;;;8.10;99.90;;;;;;4968727;28;20049;-68
2024/03/28 18:14:46;;;;;;;20.48;18.90;;;8.00;99.90;;;;;;4929036;28;20046;-69
2024/03/28 18:17:12;;;;;;;21.27;19.40;;;8.00;99.90;;;;;;4946662;28;20514;-70
2024/03/28 18:19:39;;;;;;;26.80;25.08;;;7.90;99.90;;;;;;4933875;28;20058;-69
2024/03/28 18:22:09;;;;;;;21.25;19.25;;;7.90;99.90;;;;;;4951163;28;20129;-69
2024/03/28 18:24:37;;;;;;;20.10;18.70;;;7.90;99.90;;;;;;4967173;28;20046;-68
2024/03/28 18:27:04;;;;;;;19.60;18.10;;;7.80;99.90;;;;;;4971414;28;20533;-69
2024/03/28 18:29:30;;;;;;;20.02;18.38;;;7.80;99.90;;;;;;4965380;28;20050;-70
2024/03/28 18:31:56;;;;;;;18.70;17.30;;;7.80;99.90;;;;;;4964032;28;20045;-70
2024/03/28 18:34:22;;;;;;;19.00;17.60;;;7.80;99.90;;;;;;4934263;28;20677;-69
2024/03/28 18:36:48;;;;;;;19.20;17.70;;;7.70;99.90;;;;;;4966897;28;20046;-69
2024/03/28 18:39:14;;;;;;;21.48;19.58;;;7.60;99.90;;;;;;4949507;28;20553;-69
2024/03/28 18:41:40;;;;;;;23.13;21.13;;;7.60;99.90;;;;;;4967259;28;20566;-69
2024/03/28 18:44:07;;;;;;;19.92;18.52;;;7.70;99.90;;;;;;4967170;28;20042;-68
2024/03/28 18:46:34;;;;;;;19.17;17.55;;;7.70;99.90;;;;;;4961614;28;20039;-68
2024/03/28 18:49:01;;;;;;;18.63;17.27;;;7.70;99.90;;;;;;4951603;28;20081;-68
2024/03/28 18:51:28;;;;;;;19.40;18.10;;;7.60;99.90;;;;;;4965928;28;20082;-70
2024/03/28 18:53:54;;;;;;;18.88;17.75;;;7.60;99.90;;;;;;4946281;28;20786;-69
2024/03/28 18:56:22;;;;;;;19.17;17.77;;;7.60;99.90;;;;;;4948841;28;20121;-68
2024/03/28 18:58:48;;;;;;;19.10;17.70;;;7.60;99.90;;;;;;4940348;28;20097;-70
2024/03/28 19:01:14;;;;;;;19.98;18.58;;;7.60;99.90;;;;;;4946024;28;20593;-68
2024/03/28 19:03:40;;;;;;;19.52;17.85;;;7.60;99.90;;;;;;4934217;28;20054;-69
2024/03/28 19:06:10;;;;;;;19.35;18.00;;;7.70;99.90;;;;;;4967644;28;20108;-70
2024/03/28 19:08:37;;;;;;;21.15;19.52;;;7.60;99.90;;;;;;4951014;28;20089;-68
2024/03/28 19:11:03;;;;;;;22.40;20.70;;;7.60;99.90;;;;;;4952583;28;20053;-69
2024/03/28 19:13:29;;;;;;;20.30;18.85;;;7.50;99.90;;;;;;4949442;28;20876;-68
2024/03/28 19:15:56;;;;;;;20.98;19.05;;;7.50;99.90;;;;;;4968585;28;20636;-69
2024/03/28 19:18:25;;;;;;;19.52;18.20;;;7.40;99.90;;;;;;4964922;28;20049;-68
2024/03/28 19:20:51;;;;;;;20.23;18.77;;;7.40;99.90;;;;;;4958466;28;20058;-69
2024/03/28 19:23:18;;;;;;;28.25;23.65;;;7.40;99.90;;;;;;4939432;28;20403;-70
2024/03/28 19:25:45;;;;;;;40.05;27.77;;;7.30;99.90;;;;;;4955556;28;20121;-69
2024/03/28 19:28:12;;;;;;;21.08;19.33;;;7.30;99.90;;;;;;4952441;28;20108;-70
2024/03/28 19:30:40;;;;;;;19.58;18.10;;;7.20;99.90;;;;;;4954092;28;20065;-70
2024/03/28 19:33:06;;;;;;;20.25;18.65;;;7.20;99.90;;;;;;4956469;28;20110;-69
2024/03/28 19:35:33;;;;;;;21.58;20.00;;;7.10;99.90;;;;;;4932363;28;20053;-68
2024/03/28 19:38:00;;;;;;;25.83;23.80;;;7.00;99.90;;;;;;4971530;28;20102;-69
2024/03/28 19:40:27;;;;;;;24.02;22.30;;;7.00;99.90;;;;;;4968011;28;20053;-69
2024/03/28 19:42:54;;;;;;;24.35;22.63;;;6.90;99.90;;;;;;4952790;28;20058;-69
2024/03/28 19:45:21;;;;;;;24.83;22.98;;;6.90;99.90;;;;;;4968305;28;20042;-69
2024/03/28 19:47:49;;;;;;;22.80;21.10;;;6.90;99.90;;;;;;4955933;28;20050;-71
2024/03/28 19:50:15;;;;;;;23.80;21.85;;;6.80;99.90;;;;;;4955427;28;20049;-68
2024/03/28 19:52:43;;;;;;;19.83;18.60;;;6.70;99.90;;;;;;4939649;28;20703;-68
2024/03/28 19:55:09;;;;;;;23.42;21.38;;;6.70;99.90;;;;;;4939391;28;21166;-69
2024/03/28 19:57:35;;;;;;;17.83;16.73;;;6.60;99.90;;;;;;4929524;28;20054;-68
2024/03/28 20:00:08;;;;;;;17.13;16.15;;;6.60;99.90;;;;;;4966051;28;20046;-69
2024/03/28 20:02:44;;;;;;;18.58;17.20;;;6.50;99.90;;;;;;4948489;28;20046;-69
2024/03/28 20:05:12;;;;;;;18.10;16.85;;;6.50;99.90;;;;;;4950193;28;20062;-68
2024/03/28 20:07:41;;;;;;;19.27;17.88;;;6.50;99.90;;;;;;4969588;28;20112;-68
2024/03/28 20:10:08;;;;;;;18.17;16.88;;;6.40;99.90;;;;;;4951588;28;20055;-69
2024/03/28 20:12:36;;;;;;;18.70;16.90;;;6.40;99.90;;;;;;4968198;28;20058;-69
2024/03/28 20:15:03;;;;;;;16.05;15.02;;;6.30;99.90;;;;;;4950553;28;20058;-69
2024/03/28 20:17:30;;;;;;;16.45;15.38;;;6.30;99.90;;;;;;4974590;28;20050;-70
2024/03/28 20:19:58;;;;;;;17.55;16.20;;;6.40;99.90;;;;;;4965229;28;20050;-69
2024/03/28 20:22:25;;;;;;;17.73;16.33;;;6.40;99.90;;;;;;4961670;28;20054;-69
2024/03/28 20:24:52;;;;;;;18.30;17.02;;;6.40;99.90;;;;;;4937632;28;20170;-68
2024/03/28 20:27:19;;;;;;;21.20;19.25;;;6.40;99.90;;;;;;4952283;28;20176;-69
2024/03/28 20:29:52;;;;;;;18.10;16.73;;;6.40;99.90;;;;;;4955112;28;20124;-69
2024/03/28 20:32:21;;;;;;;18.08;16.63;;;6.40;99.90;;;;;;4951359;28;20037;-68
2024/03/28 20:34:47;;;;;;;17.83;16.63;;;6.50;99.90;;;;;;4950801;28;20046;-69
2024/03/28 20:37:14;;;;;;;17.73;16.40;;;6.40;99.90;;;;;;4951101;28;20248;-68
2024/03/28 20:39:40;;;;;;;16.67;15.40;;;6.50;99.90;;;;;;4984554;28;20045;-68
2024/03/28 20:42:07;;;;;;;17.58;16.38;;;6.50;99.90;;;;;;4951441;28;20042;-69
2024/03/28 20:44:33;;;;;;;17.00;15.90;;;6.50;99.90;;;;;;4948279;28;20774;-68
2024/03/28 20:47:07;;;;;;;32.75;24.17;;;6.50;99.90;;;;;;4947303;28;20054;-69
2024/03/28 20:49:34;;;;;;;40.97;22.45;;;6.50;99.90;;;;;;4960875;28;20282;-70
2024/03/28 20:52:00;;;;;;;19.02;17.35;;;6.50;99.90;;;;;;4949640;28;20081;-70
2024/03/28 20:54:27;;;;;;;17.23;16.02;;;6.50;99.90;;;;;;4953520;28;20065;-69
2024/03/28 20:56:53;;;;;;;18.08;16.67;;;6.50;99.90;;;;;;4971927;28;20074;-68
2024/03/28 20:59:20;;;;;;;17.60;16.33;;;6.50;99.90;;;;;;4953294;28;20192;-70
2024/03/28 21:01:46;;;;;;;18.05;16.85;;;6.50;99.90;;;;;;4943760;28;20038;-69
2024/03/28 21:04:12;;;;;;;21.58;19.92;;;6.40;99.90;;;;;;4973097;28;20515;-70
2024/03/28 21:12:13;;;;;;;21.52;19.80;;;6.40;99.90;;;;;;4974095;28;20129;-69
2024/03/28 21:14:41;;;;;;;19.08;17.55;;;6.40;99.90;;;;;;4980083;28;20042;-69
2024/03/28 21:17:10;;;;;;;19.70;18.08;;;6.40;99.90;;;;;;4957442;28;20042;-69
2024/03/28 21:19:36;;;;;;;18.92;17.30;;;6.30;99.90;;;;;;4975536;28;20999;-69
2024/03/28 21:22:06;;;;;;;19.33;17.63;;;6.30;99.90;;;;;;4953225;28;20759;-69
2024/03/28 21:24:33;;;;;;;18.38;17.02;;;6.30;99.90;;;;;;4957612;28;20050;-70
2024/03/28 21:26:59;;;;;;;18.23;16.80;;;6.30;99.90;;;;;;4951777;28;20050;-68
2024/03/28 21:29:26;;;;;;;18.90;17.50;;;6.30;99.90;;;;;;4954838;28;20045;-68
2024/03/28 21:31:53;;;;;;;18.52;17.48;;;6.30;99.90;;;;;;4984567;28;20046;-67
2024/03/28 21:34:20;;;;;;;18.38;17.27;;;6.30;99.90;;;;;;4983479;28;20050;-68
2024/03/28 21:36:46;;;;;;;18.08;16.73;;;6.30;99.90;;;;;;4979935;28;20039;-69
2024/03/28 21:39:15;;;;;;;17.77;16.50;;;6.30;99.90;;;;;;4961063;28;20034;-70
2024/03/28 21:41:41;;;;;;;18.20;16.75;;;6.20;99.90;;;;;;4974302;28;20053;-70
2024/03/28 21:44:08;;;;;;;18.05;16.70;;;6.20;99.90;;;;;;4961005;28;20055;-69
2024/03/28 21:46:34;;;;;;;18.55;17.23;;;6.10;99.90;;;;;;4936299;28;20665;-68
2024/03/28 21:49:01;;;;;;;17.88;16.60;;;6.10;99.90;;;;;;4974929;28;20049;-69
2024/03/28 21:51:27;;;;;;;19.67;18.00;;;6.10;99.90;;;;;;4944291;28;20051;-71
2024/03/28 21:53:53;;;;;;;18.60;17.30;;;6.10;99.90;;;;;;4955643;28;20058;-69
2024/03/28 21:56:21;;;;;;;18.65;17.15;;;6.00;99.90;;;;;;4954079;28;20586;-69
2024/03/28 21:58:47;;;;;;;20.83;19.27;;;6.00;99.90;;;;;;4965834;28;20050;-69
2024/03/28 22:01:14;;;;;;;18.63;17.33;;;5.90;99.90;;;;;;4966878;28;20162;-69
2024/03/28 22:03:40;;;;;;;17.98;16.75;;;5.90;99.90;;;;;;4971797;28;20053;-69
2024/03/28 22:06:07;;;;;;;18.60;17.00;;;5.90;99.90;;;;;;4973234;28;20042;-69
2024/03/28 22:08:34;;;;;;;19.42;17.88;;;6.00;99.90;;;;;;4954451;28;20050;-68
2024/03/28 22:11:05;;;;;;;18.90;17.65;;;6.10;99.90;;;;;;4970759;28;20046;-67
2024/03/28 22:13:32;;;;;;;18.70;17.08;;;6.20;99.90;;;;;;4968894;28;20062;-68
2024/03/28 22:16:03;;;;;;;18.45;17.10;;;6.30;99.90;;;;;;4951599;28;20070;-69
2024/03/28 22:18:29;;;;;;;19.38;17.77;;;6.40;99.90;;;;;;4975383;28;20034;-68
2024/03/28 22:20:55;;;;;;;19.83;18.13;;;6.50;99.90;;;;;;4949783;28;20046;-70
2024/03/28 22:23:23;;;;;;;20.58;18.85;;;6.50;99.90;;;;;;4948498;28;20058;-70
2024/03/28 22:25:50;;;;;;;19.42;17.95;;;6.60;99.90;;;;;;4941507;28;20038;-69
2024/03/28 22:28:25;;;;;;;19.33;17.90;;;6.60;99.90;;;;;;4961545;28;20042;-69
2024/03/28 22:30:51;;;;;;;18.25;16.95;;;6.60;99.90;;;;;;4949126;28;20511;-69
2024/03/28 22:33:18;;;;;;;19.15;17.75;;;6.50;99.90;;;;;;4972356;28;20035;-69
2024/03/28 22:35:44;;;;;;;18.15;17.00;;;6.60;99.90;;;;;;4956296;28;20062;-69
2024/03/28 22:38:11;;;;;;;18.25;17.25;;;6.50;99.90;;;;;;4971916;28;20085;-69
2024/03/28 22:40:41;;;;;;;17.67;16.58;;;6.50;99.90;;;;;;4953388;28;20041;-69
2024/03/28 22:43:08;;;;;;;18.08;17.08;;;6.50;99.90;;;;;;4953674;28;20060;-68
2024/03/28 22:45:34;;;;;;;18.65;17.23;;;6.40;99.90;;;;;;4950025;28;20638;-69
2024/03/28 22:48:04;;;;;;;17.30;16.17;;;6.50;99.90;;;;;;4952851;28;20070;-67
2024/03/28 22:50:31;;;;;;;18.10;16.52;;;6.60;99.90;;;;;;4962205;28;20120;-70
2024/03/28 22:52:57;;;;;;;17.80;16.50;;;6.70;99.90;;;;;;4968432;28;20056;-69
2024/03/28 22:55:23;;;;;;;18.00;16.80;;;6.80;99.90;;;;;;4972712;28;20045;-70
2024/03/28 22:57:51;;;;;;;17.77;16.23;;;6.90;99.90;;;;;;4965680;28;20061;-69
2024/03/28 23:00:42;;;;;;;17.58;16.50;;;7.00;99.90;;;;;;4957285;28;20065;-70
2024/03/28 23:03:08;;;;;;;17.63;16.40;;;7.00;99.90;;;;;;4958210;28;20500;-69
2024/03/28 23:05:34;;;;;;;17.98;16.75;;;7.00;99.90;;;;;;4952773;28;20039;-69
2024/03/28 23:08:01;;;;;;;18.10;16.90;;;7.00;99.90;;;;;;4967418;28;20046;-69
2024/03/28 23:10:28;;;;;;;19.13;17.83;;;7.00;99.90;;;;;;4969104;28;20042;-69